sensor_id;sensor_type;location;lat;lon;timestamp;P1;durP1;ratioP1;P2;durP2;ratioP2
9106;SDS011;4589;48.690;8.952;2024-01-06T00:01:38;32.30;;;20.30;;
9106;SDS011;4589;48.690;8.952;2024-01-06T00:04:04;34.67;;;21.43;;
9106;SDS011;4589;48.690;8.952;2024-01-06T00:06:30;29.60;;;18.80;;
9106;SDS011;4589;48.690;8.952;2024-01-06T00:08:55;28.13;;;18.90;;
9106;SDS011;4589;48.690;8.952;2024-01-06T00:11:21;30.73;;;19.40;;
9106;SDS011;4589;48.690;8.952;2024-01-06T00:13:48;27.63;;;19.00;;
9106;SDS011;4589;48.690;8.952;2024-01-06T00:16:16;30.83;;;18.47;;
9106;SDS011;4589;48.690;8.952;2024-01-06T00:18:43;41.33;;;18.60;;
9106;SDS011;4589;48.690;8.952;2024-01-06T00:21:08;21.67;;;16.30;;
9106;SDS011;4589;48.690;8.952;2024-01-06T00:23:34;23.00;;;15.53;;
9106;SDS011;4589;48.690;8.952;2024-01-06T00:25:59;28.40;;;16.43;;
9106;SDS011;4589;48.690;8.952;2024-01-06T00:28:25;32.03;;;17.33;;
9106;SDS011;4589;48.690;8.952;2024-01-06T00:30:51;30.67;;;14.63;;
9106;SDS011;4589;48.690;8.952;2024-01-06T00:33:18;29.83;;;16.47;;
9106;SDS011;4589;48.690;8.952;2024-01-06T00:35:43;26.23;;;16.60;;
9106;SDS011;4589;48.690;8.952;2024-01-06T00:38:09;28.67;;;15.77;;
9106;SDS011;4589;48.690;8.952;2024-01-06T00:40:34;26.83;;;15.50;;
9106;SDS011;4589;48.690;8.952;2024-01-06T00:43:00;28.27;;;17.43;;
9106;SDS011;4589;48.690;8.952;2024-01-06T00:45:26;27.23;;;17.07;;
9106;SDS011;4589;48.690;8.952;2024-01-06T00:47:52;24.83;;;15.53;;
9106;SDS011;4589;48.690;8.952;2024-01-06T00:50:18;27.13;;;16.50;;
9106;SDS011;4589;48.690;8.952;2024-01-06T00:52:47;25.10;;;14.30;;
9106;SDS011;4589;48.690;8.952;2024-01-06T00:55:12;21.63;;;14.03;;
9106;SDS011;4589;48.690;8.952;2024-01-06T00:57:38;27.80;;;13.67;;
9106;SDS011;4589;48.690;8.952;2024-01-06T01:00:05;26.83;;;14.17;;
9106;SDS011;4589;48.690;8.952;2024-01-06T01:02:31;29.40;;;15.90;;
9106;SDS011;4589;48.690;8.952;2024-01-06T01:04:57;21.00;;;14.37;;
9106;SDS011;4589;48.690;8.952;2024-01-06T01:07:23;24.50;;;14.50;;
9106;SDS011;4589;48.690;8.952;2024-01-06T01:09:49;23.30;;;13.80;;
9106;SDS011;4589;48.690;8.952;2024-01-06T01:12:15;26.40;;;14.67;;
9106;SDS011;4589;48.690;8.952;2024-01-06T01:14:41;29.97;;;14.70;;
9106;SDS011;4589;48.690;8.952;2024-01-06T01:17:06;25.67;;;14.93;;
9106;SDS011;4589;48.690;8.952;2024-01-06T01:19:32;25.90;;;14.60;;
9106;SDS011;4589;48.690;8.952;2024-01-06T01:21:57;25.23;;;14.90;;
9106;SDS011;4589;48.690;8.952;2024-01-06T01:24:23;24.20;;;13.47;;
9106;SDS011;4589;48.690;8.952;2024-01-06T01:26:49;27.73;;;14.43;;
9106;SDS011;4589;48.690;8.952;2024-01-06T01:29:15;30.97;;;13.90;;
9106;SDS011;4589;48.690;8.952;2024-01-06T01:31:41;28.67;;;14.23;;
9106;SDS011;4589;48.690;8.952;2024-01-06T01:34:07;24.93;;;14.00;;
9106;SDS011;4589;48.690;8.952;2024-01-06T01:36:33;18.30;;;11.70;;
9106;SDS011;4589;48.690;8.952;2024-01-06T01:38:58;22.60;;;11.93;;
9106;SDS011;4589;48.690;8.952;2024-01-06T01:41:24;23.90;;;11.40;;
9106;SDS011;4589;48.690;8.952;2024-01-06T01:43:50;21.63;;;9.23;;
9106;SDS011;4589;48.690;8.952;2024-01-06T01:46:23;14.13;;;7.90;;
9106;SDS011;4589;48.690;8.952;2024-01-06T01:48:53;16.03;;;7.73;;
9106;SDS011;4589;48.690;8.952;2024-01-06T01:51:22;9.47;;;6.50;;
9106;SDS011;4589;48.690;8.952;2024-01-06T01:53:51;15.00;;;6.93;;
9106;SDS011;4589;48.690;8.952;2024-01-06T01:56:17;15.30;;;6.07;;
9106;SDS011;4589;48.690;8.952;2024-01-06T01:58:43;14.73;;;5.80;;
9106;SDS011;4589;48.690;8.952;2024-01-06T02:01:09;15.53;;;6.40;;
9106;SDS011;4589;48.690;8.952;2024-01-06T02:03:35;16.63;;;6.90;;
9106;SDS011;4589;48.690;8.952;2024-01-06T02:06:01;11.87;;;6.50;;
9106;SDS011;4589;48.690;8.952;2024-01-06T02:08:27;10.30;;;6.13;;
9106;SDS011;4589;48.690;8.952;2024-01-06T02:10:54;12.70;;;7.03;;
9106;SDS011;4589;48.690;8.952;2024-01-06T02:13:21;13.63;;;7.27;;
9106;SDS011;4589;48.690;8.952;2024-01-06T02:15:47;14.53;;;8.27;;
9106;SDS011;4589;48.690;8.952;2024-01-06T02:18:13;17.27;;;10.53;;
9106;SDS011;4589;48.690;8.952;2024-01-06T02:20:38;18.27;;;10.17;;
9106;SDS011;4589;48.690;8.952;2024-01-06T02:23:08;18.97;;;10.40;;
9106;SDS011;4589;48.690;8.952;2024-01-06T02:25:33;14.33;;;9.10;;
9106;SDS011;4589;48.690;8.952;2024-01-06T02:28:00;16.97;;;9.90;;
9106;SDS011;4589;48.690;8.952;2024-01-06T02:30:25;12.27;;;7.80;;
9106;SDS011;4589;48.690;8.952;2024-01-06T02:32:51;22.17;;;9.17;;
9106;SDS011;4589;48.690;8.952;2024-01-06T02:35:17;15.47;;;7.87;;
9106;SDS011;4589;48.690;8.952;2024-01-06T02:37:43;13.20;;;7.57;;
9106;SDS011;4589;48.690;8.952;2024-01-06T02:40:09;11.30;;;7.33;;
9106;SDS011;4589;48.690;8.952;2024-01-06T02:42:35;14.17;;;7.50;;
9106;SDS011;4589;48.690;8.952;2024-01-06T02:45:01;10.63;;;6.37;;
9106;SDS011;4589;48.690;8.952;2024-01-06T02:47:27;14.40;;;7.60;;
9106;SDS011;4589;48.690;8.952;2024-01-06T02:49:52;12.33;;;6.83;;
9106;SDS011;4589;48.690;8.952;2024-01-06T02:52:18;19.57;;;9.20;;
9106;SDS011;4589;48.690;8.952;2024-01-06T02:54:44;13.03;;;7.83;;
9106;SDS011;4589;48.690;8.952;2024-01-06T02:57:10;18.97;;;7.73;;
9106;SDS011;4589;48.690;8.952;2024-01-06T02:59:38;13.27;;;7.30;;
9106;SDS011;4589;48.690;8.952;2024-01-06T03:02:03;11.90;;;7.30;;
9106;SDS011;4589;48.690;8.952;2024-01-06T03:04:29;17.43;;;7.30;;
9106;SDS011;4589;48.690;8.952;2024-01-06T03:06:54;18.53;;;7.90;;
9106;SDS011;4589;48.690;8.952;2024-01-06T03:09:20;15.30;;;7.10;;
9106;SDS011;4589;48.690;8.952;2024-01-06T03:11:46;13.80;;;7.30;;
9106;SDS011;4589;48.690;8.952;2024-01-06T03:14:12;15.57;;;7.77;;
9106;SDS011;4589;48.690;8.952;2024-01-06T03:16:38;14.80;;;7.63;;
9106;SDS011;4589;48.690;8.952;2024-01-06T03:19:03;13.40;;;7.00;;
9106;SDS011;4589;48.690;8.952;2024-01-06T03:21:29;14.43;;;8.73;;
9106;SDS011;4589;48.690;8.952;2024-01-06T03:23:55;20.67;;;7.87;;
9106;SDS011;4589;48.690;8.952;2024-01-06T03:26:21;13.40;;;8.57;;
9106;SDS011;4589;48.690;8.952;2024-01-06T03:28:48;12.70;;;7.00;;
9106;SDS011;4589;48.690;8.952;2024-01-06T03:31:14;16.80;;;7.90;;
9106;SDS011;4589;48.690;8.952;2024-01-06T03:33:40;11.33;;;7.30;;
9106;SDS011;4589;48.690;8.952;2024-01-06T03:36:06;14.70;;;7.87;;
9106;SDS011;4589;48.690;8.952;2024-01-06T03:38:33;11.90;;;7.43;;
9106;SDS011;4589;48.690;8.952;2024-01-06T03:40:59;15.83;;;7.50;;
9106;SDS011;4589;48.690;8.952;2024-01-06T03:43:24;17.70;;;7.80;;
9106;SDS011;4589;48.690;8.952;2024-01-06T03:45:50;12.60;;;7.43;;
9106;SDS011;4589;48.690;8.952;2024-01-06T03:48:15;25.40;;;7.40;;
9106;SDS011;4589;48.690;8.952;2024-01-06T03:50:42;13.00;;;6.93;;
9106;SDS011;4589;48.690;8.952;2024-01-06T03:53:07;9.67;;;6.00;;
9106;SDS011;4589;48.690;8.952;2024-01-06T03:55:33;13.23;;;6.97;;
9106;SDS011;4589;48.690;8.952;2024-01-06T03:57:59;26.73;;;9.17;;
9106;SDS011;4589;48.690;8.952;2024-01-06T04:00:25;12.30;;;8.37;;
9106;SDS011;4589;48.690;8.952;2024-01-06T04:02:51;12.20;;;8.43;;
9106;SDS011;4589;48.690;8.952;2024-01-06T04:05:17;18.70;;;11.80;;
9106;SDS011;4589;48.690;8.952;2024-01-06T04:07:43;16.90;;;10.67;;
9106;SDS011;4589;48.690;8.952;2024-01-06T04:10:08;16.17;;;9.43;;
9106;SDS011;4589;48.690;8.952;2024-01-06T04:12:34;14.07;;;6.83;;
9106;SDS011;4589;48.690;8.952;2024-01-06T04:15:00;21.73;;;8.67;;
9106;SDS011;4589;48.690;8.952;2024-01-06T04:17:26;11.53;;;7.20;;
9106;SDS011;4589;48.690;8.952;2024-01-06T04:19:52;12.87;;;6.47;;
9106;SDS011;4589;48.690;8.952;2024-01-06T04:22:18;14.83;;;5.40;;
9106;SDS011;4589;48.690;8.952;2024-01-06T04:24:44;8.30;;;5.10;;
9106;SDS011;4589;48.690;8.952;2024-01-06T04:27:09;8.00;;;4.77;;
9106;SDS011;4589;48.690;8.952;2024-01-06T04:29:36;8.03;;;4.60;;
9106;SDS011;4589;48.690;8.952;2024-01-06T04:32:01;10.10;;;4.80;;
9106;SDS011;4589;48.690;8.952;2024-01-06T04:34:27;7.00;;;4.70;;
9106;SDS011;4589;48.690;8.952;2024-01-06T04:36:53;7.90;;;4.77;;
9106;SDS011;4589;48.690;8.952;2024-01-06T04:39:18;8.80;;;5.23;;
9106;SDS011;4589;48.690;8.952;2024-01-06T04:41:44;18.33;;;10.80;;
9106;SDS011;4589;48.690;8.952;2024-01-06T04:44:10;16.20;;;9.30;;
9106;SDS011;4589;48.690;8.952;2024-01-06T04:46:35;20.53;;;9.20;;
9106;SDS011;4589;48.690;8.952;2024-01-06T04:49:01;13.03;;;5.83;;
9106;SDS011;4589;48.690;8.952;2024-01-06T04:51:27;10.77;;;7.30;;
9106;SDS011;4589;48.690;8.952;2024-01-06T04:53:53;10.20;;;6.47;;
9106;SDS011;4589;48.690;8.952;2024-01-06T04:56:18;10.40;;;6.23;;
9106;SDS011;4589;48.690;8.952;2024-01-06T04:58:44;9.43;;;5.80;;
9106;SDS011;4589;48.690;8.952;2024-01-06T05:01:10;10.73;;;6.30;;
9106;SDS011;4589;48.690;8.952;2024-01-06T05:03:36;12.47;;;6.60;;
9106;SDS011;4589;48.690;8.952;2024-01-06T05:06:01;9.90;;;6.40;;
9106;SDS011;4589;48.690;8.952;2024-01-06T05:08:27;20.43;;;7.33;;
9106;SDS011;4589;48.690;8.952;2024-01-06T05:10:55;16.17;;;7.67;;
9106;SDS011;4589;48.690;8.952;2024-01-06T05:13:20;12.03;;;7.60;;
9106;SDS011;4589;48.690;8.952;2024-01-06T05:15:46;12.00;;;7.37;;
9106;SDS011;4589;48.690;8.952;2024-01-06T05:18:12;16.00;;;8.50;;
9106;SDS011;4589;48.690;8.952;2024-01-06T05:20:37;13.50;;;7.67;;
9106;SDS011;4589;48.690;8.952;2024-01-06T05:23:03;10.70;;;7.10;;
9106;SDS011;4589;48.690;8.952;2024-01-06T05:25:29;10.13;;;6.60;;
9106;SDS011;4589;48.690;8.952;2024-01-06T05:27:55;14.00;;;6.30;;
9106;SDS011;4589;48.690;8.952;2024-01-06T05:30:20;10.83;;;6.33;;
9106;SDS011;4589;48.690;8.952;2024-01-06T05:32:46;13.80;;;5.93;;
9106;SDS011;4589;48.690;8.952;2024-01-06T05:35:11;18.40;;;6.70;;
9106;SDS011;4589;48.690;8.952;2024-01-06T05:37:37;14.13;;;6.53;;
9106;SDS011;4589;48.690;8.952;2024-01-06T05:40:04;16.23;;;6.30;;
9106;SDS011;4589;48.690;8.952;2024-01-06T05:42:31;10.17;;;5.10;;
9106;SDS011;4589;48.690;8.952;2024-01-06T05:44:57;9.93;;;6.03;;
9106;SDS011;4589;48.690;8.952;2024-01-06T05:47:23;10.43;;;5.10;;
9106;SDS011;4589;48.690;8.952;2024-01-06T05:49:49;24.20;;;6.03;;
9106;SDS011;4589;48.690;8.952;2024-01-06T05:52:15;15.43;;;6.50;;
9106;SDS011;4589;48.690;8.952;2024-01-06T05:54:41;15.30;;;5.50;;
9106;SDS011;4589;48.690;8.952;2024-01-06T05:57:09;11.20;;;6.70;;
9106;SDS011;4589;48.690;8.952;2024-01-06T05:59:35;13.50;;;5.60;;
9106;SDS011;4589;48.690;8.952;2024-01-06T06:02:00;13.97;;;6.93;;
9106;SDS011;4589;48.690;8.952;2024-01-06T06:04:26;11.37;;;6.97;;
9106;SDS011;4589;48.690;8.952;2024-01-06T06:06:52;9.87;;;5.90;;
9106;SDS011;4589;48.690;8.952;2024-01-06T06:09:18;10.83;;;6.20;;
9106;SDS011;4589;48.690;8.952;2024-01-06T06:11:45;10.50;;;6.13;;
9106;SDS011;4589;48.690;8.952;2024-01-06T06:14:11;10.17;;;7.33;;
9106;SDS011;4589;48.690;8.952;2024-01-06T06:16:37;13.93;;;6.10;;
9106;SDS011;4589;48.690;8.952;2024-01-06T06:19:03;15.73;;;7.23;;
9106;SDS011;4589;48.690;8.952;2024-01-06T06:21:29;8.50;;;6.63;;
9106;SDS011;4589;48.690;8.952;2024-01-06T06:23:55;16.00;;;7.80;;
9106;SDS011;4589;48.690;8.952;2024-01-06T06:26:20;13.33;;;6.63;;
9106;SDS011;4589;48.690;8.952;2024-01-06T06:28:46;15.03;;;7.30;;
9106;SDS011;4589;48.690;8.952;2024-01-06T06:31:12;14.10;;;7.40;;
9106;SDS011;4589;48.690;8.952;2024-01-06T06:33:38;12.27;;;6.03;;
9106;SDS011;4589;48.690;8.952;2024-01-06T06:36:04;10.63;;;6.33;;
9106;SDS011;4589;48.690;8.952;2024-01-06T06:38:30;9.33;;;4.80;;
9106;SDS011;4589;48.690;8.952;2024-01-06T06:40:56;9.10;;;5.27;;
9106;SDS011;4589;48.690;8.952;2024-01-06T06:43:21;11.90;;;5.80;;
9106;SDS011;4589;48.690;8.952;2024-01-06T06:45:47;10.53;;;5.53;;
9106;SDS011;4589;48.690;8.952;2024-01-06T06:48:13;12.60;;;5.43;;
9106;SDS011;4589;48.690;8.952;2024-01-06T06:50:38;8.00;;;4.97;;
9106;SDS011;4589;48.690;8.952;2024-01-06T06:53:05;11.03;;;5.90;;
9106;SDS011;4589;48.690;8.952;2024-01-06T06:55:31;12.20;;;5.03;;
9106;SDS011;4589;48.690;8.952;2024-01-06T06:57:57;7.53;;;5.77;;
9106;SDS011;4589;48.690;8.952;2024-01-06T07:00:23;11.10;;;4.70;;
9106;SDS011;4589;48.690;8.952;2024-01-06T07:02:48;8.50;;;5.23;;
9106;SDS011;4589;48.690;8.952;2024-01-06T07:05:14;7.90;;;4.90;;
9106;SDS011;4589;48.690;8.952;2024-01-06T07:07:40;11.10;;;5.80;;
9106;SDS011;4589;48.690;8.952;2024-01-06T07:10:05;10.07;;;4.93;;
9106;SDS011;4589;48.690;8.952;2024-01-06T07:12:32;9.70;;;4.83;;
9106;SDS011;4589;48.690;8.952;2024-01-06T07:14:57;4.90;;;3.97;;
9106;SDS011;4589;48.690;8.952;2024-01-06T07:17:23;6.77;;;4.23;;
9106;SDS011;4589;48.690;8.952;2024-01-06T07:19:49;6.33;;;5.10;;
9106;SDS011;4589;48.690;8.952;2024-01-06T07:22:15;11.70;;;5.03;;
9106;SDS011;4589;48.690;8.952;2024-01-06T07:24:41;6.03;;;4.53;;
9106;SDS011;4589;48.690;8.952;2024-01-06T07:27:07;6.40;;;4.67;;
9106;SDS011;4589;48.690;8.952;2024-01-06T07:29:32;7.30;;;5.40;;
9106;SDS011;4589;48.690;8.952;2024-01-06T07:31:58;7.70;;;5.03;;
9106;SDS011;4589;48.690;8.952;2024-01-06T07:34:24;10.23;;;5.90;;
9106;SDS011;4589;48.690;8.952;2024-01-06T07:36:50;8.50;;;5.30;;
9106;SDS011;4589;48.690;8.952;2024-01-06T07:39:16;8.27;;;4.70;;
9106;SDS011;4589;48.690;8.952;2024-01-06T07:41:42;9.73;;;6.97;;
9106;SDS011;4589;48.690;8.952;2024-01-06T07:44:07;17.40;;;6.50;;
9106;SDS011;4589;48.690;8.952;2024-01-06T07:46:33;10.20;;;5.80;;
9106;SDS011;4589;48.690;8.952;2024-01-06T07:49:01;12.20;;;6.27;;
9106;SDS011;4589;48.690;8.952;2024-01-06T07:51:27;8.93;;;5.70;;
9106;SDS011;4589;48.690;8.952;2024-01-06T07:53:53;8.90;;;5.60;;
9106;SDS011;4589;48.690;8.952;2024-01-06T07:56:19;7.23;;;5.47;;
9106;SDS011;4589;48.690;8.952;2024-01-06T07:58:45;12.33;;;6.37;;
9106;SDS011;4589;48.690;8.952;2024-01-06T08:01:11;8.50;;;6.17;;
9106;SDS011;4589;48.690;8.952;2024-01-06T08:03:36;7.13;;;5.47;;
9106;SDS011;4589;48.690;8.952;2024-01-06T08:06:02;10.73;;;5.57;;
9106;SDS011;4589;48.690;8.952;2024-01-06T08:08:28;9.87;;;5.87;;
9106;SDS011;4589;48.690;8.952;2024-01-06T08:10:54;6.83;;;4.67;;
9106;SDS011;4589;48.690;8.952;2024-01-06T08:13:20;8.00;;;5.70;;
9106;SDS011;4589;48.690;8.952;2024-01-06T08:15:45;8.37;;;6.53;;
9106;SDS011;4589;48.690;8.952;2024-01-06T08:18:11;8.70;;;5.33;;
9106;SDS011;4589;48.690;8.952;2024-01-06T08:20:36;9.13;;;5.40;;
9106;SDS011;4589;48.690;8.952;2024-01-06T08:23:02;11.90;;;5.03;;
9106;SDS011;4589;48.690;8.952;2024-01-06T08:25:29;10.23;;;5.13;;
9106;SDS011;4589;48.690;8.952;2024-01-06T08:27:55;9.27;;;5.60;;
9106;SDS011;4589;48.690;8.952;2024-01-06T08:30:21;9.73;;;6.00;;
9106;SDS011;4589;48.690;8.952;2024-01-06T08:32:48;8.03;;;5.33;;
9106;SDS011;4589;48.690;8.952;2024-01-06T08:35:14;8.90;;;5.33;;
9106;SDS011;4589;48.690;8.952;2024-01-06T08:37:42;8.80;;;5.93;;
9106;SDS011;4589;48.690;8.952;2024-01-06T08:40:08;8.23;;;6.13;;
9106;SDS011;4589;48.690;8.952;2024-01-06T08:42:34;7.50;;;5.87;;
9106;SDS011;4589;48.690;8.952;2024-01-06T08:45:00;8.70;;;6.00;;
9106;SDS011;4589;48.690;8.952;2024-01-06T08:47:26;15.50;;;6.57;;
9106;SDS011;4589;48.690;8.952;2024-01-06T08:49:52;9.93;;;6.10;;
9106;SDS011;4589;48.690;8.952;2024-01-06T08:52:18;10.27;;;6.57;;
9106;SDS011;4589;48.690;8.952;2024-01-06T08:54:43;10.43;;;5.30;;
9106;SDS011;4589;48.690;8.952;2024-01-06T08:57:09;8.53;;;5.63;;
9106;SDS011;4589;48.690;8.952;2024-01-06T08:59:35;10.47;;;5.43;;
9106;SDS011;4589;48.690;8.952;2024-01-06T09:02:00;6.60;;;5.03;;
9106;SDS011;4589;48.690;8.952;2024-01-06T09:04:26;7.03;;;5.73;;
9106;SDS011;4589;48.690;8.952;2024-01-06T09:06:52;8.87;;;4.80;;
9106;SDS011;4589;48.690;8.952;2024-01-06T09:09:17;7.90;;;4.80;;
9106;SDS011;4589;48.690;8.952;2024-01-06T09:11:43;9.53;;;5.47;;
9106;SDS011;4589;48.690;8.952;2024-01-06T09:14:09;5.77;;;4.80;;
9106;SDS011;4589;48.690;8.952;2024-01-06T09:16:35;5.60;;;4.23;;
9106;SDS011;4589;48.690;8.952;2024-01-06T09:19:02;8.33;;;5.30;;
9106;SDS011;4589;48.690;8.952;2024-01-06T09:21:27;9.20;;;5.50;;
9106;SDS011;4589;48.690;8.952;2024-01-06T09:23:53;6.33;;;4.87;;
9106;SDS011;4589;48.690;8.952;2024-01-06T09:26:19;7.83;;;4.80;;
9106;SDS011;4589;48.690;8.952;2024-01-06T09:28:45;6.90;;;4.50;;
9106;SDS011;4589;48.690;8.952;2024-01-06T09:31:11;5.07;;;4.30;;
9106;SDS011;4589;48.690;8.952;2024-01-06T09:33:36;6.00;;;4.77;;
9106;SDS011;4589;48.690;8.952;2024-01-06T09:36:03;6.60;;;3.83;;
9106;SDS011;4589;48.690;8.952;2024-01-06T09:38:29;5.97;;;4.70;;
9106;SDS011;4589;48.690;8.952;2024-01-06T09:40:55;6.17;;;4.80;;
9106;SDS011;4589;48.690;8.952;2024-01-06T09:43:20;4.20;;;3.80;;
9106;SDS011;4589;48.690;8.952;2024-01-06T09:45:48;4.53;;;3.73;;
9106;SDS011;4589;48.690;8.952;2024-01-06T09:48:22;8.03;;;3.93;;
9106;SDS011;4589;48.690;8.952;2024-01-06T09:50:54;5.57;;;3.87;;
9106;SDS011;4589;48.690;8.952;2024-01-06T09:53:22;8.50;;;4.27;;
9106;SDS011;4589;48.690;8.952;2024-01-06T09:55:51;7.83;;;3.90;;
9106;SDS011;4589;48.690;8.952;2024-01-06T09:58:17;4.43;;;3.77;;
9106;SDS011;4589;48.690;8.952;2024-01-06T10:00:43;3.53;;;3.23;;
9106;SDS011;4589;48.690;8.952;2024-01-06T10:03:08;4.00;;;2.97;;
9106;SDS011;4589;48.690;8.952;2024-01-06T10:05:34;4.17;;;3.57;;
9106;SDS011;4589;48.690;8.952;2024-01-06T10:08:01;6.33;;;3.57;;
9106;SDS011;4589;48.690;8.952;2024-01-06T10:10:29;3.70;;;3.33;;
9106;SDS011;4589;48.690;8.952;2024-01-06T10:12:54;2.80;;;2.60;;
9106;SDS011;4589;48.690;8.952;2024-01-06T10:15:20;3.13;;;2.83;;
9106;SDS011;4589;48.690;8.952;2024-01-06T10:17:47;3.10;;;2.80;;
9106;SDS011;4589;48.690;8.952;2024-01-06T10:20:12;3.67;;;2.40;;
9106;SDS011;4589;48.690;8.952;2024-01-06T10:22:42;4.87;;;2.60;;
9106;SDS011;4589;48.690;8.952;2024-01-06T10:25:08;3.00;;;2.43;;
9106;SDS011;4589;48.690;8.952;2024-01-06T10:27:35;3.57;;;2.30;;
9106;SDS011;4589;48.690;8.952;2024-01-06T10:30:08;3.90;;;3.17;;
9106;SDS011;4589;48.690;8.952;2024-01-06T10:32:35;6.40;;;2.90;;
9106;SDS011;4589;48.690;8.952;2024-01-06T10:35:01;4.60;;;3.10;;
9106;SDS011;4589;48.690;8.952;2024-01-06T10:37:28;2.97;;;2.30;;
9106;SDS011;4589;48.690;8.952;2024-01-06T10:40:13;3.10;;;2.10;;
9106;SDS011;4589;48.690;8.952;2024-01-06T10:42:43;2.97;;;2.37;;
9106;SDS011;4589;48.690;8.952;2024-01-06T10:45:10;3.90;;;2.90;;
9106;SDS011;4589;48.690;8.952;2024-01-06T10:47:37;3.20;;;2.93;;
9106;SDS011;4589;48.690;8.952;2024-01-06T10:50:05;4.03;;;3.63;;
9106;SDS011;4589;48.690;8.952;2024-01-06T10:52:32;2.27;;;2.03;;
9106;SDS011;4589;48.690;8.952;2024-01-06T10:55:00;3.27;;;2.97;;
9106;SDS011;4589;48.690;8.952;2024-01-06T10:57:27;2.30;;;2.10;;
9106;SDS011;4589;48.690;8.952;2024-01-06T10:59:56;2.47;;;2.10;;
9106;SDS011;4589;48.690;8.952;2024-01-06T11:02:23;2.57;;;2.30;;
9106;SDS011;4589;48.690;8.952;2024-01-06T11:04:50;2.37;;;2.07;;
9106;SDS011;4589;48.690;8.952;2024-01-06T11:07:20;2.13;;;1.93;;
9106;SDS011;4589;48.690;8.952;2024-01-06T11:09:49;2.93;;;2.63;;
9106;SDS011;4589;48.690;8.952;2024-01-06T11:12:16;2.30;;;2.10;;
9106;SDS011;4589;48.690;8.952;2024-01-06T11:14:42;2.70;;;2.27;;
9106;SDS011;4589;48.690;8.952;2024-01-06T11:17:07;2.20;;;2.00;;
9106;SDS011;4589;48.690;8.952;2024-01-06T11:22:20;2.60;;;2.27;;
9106;SDS011;4589;48.690;8.952;2024-01-06T11:24:47;4.20;;;1.90;;
9106;SDS011;4589;48.690;8.952;2024-01-06T11:27:21;1.80;;;1.50;;
9106;SDS011;4589;48.690;8.952;2024-01-06T11:29:50;1.20;;;1.00;;
9106;SDS011;4589;48.690;8.952;2024-01-06T11:32:17;1.60;;;1.50;;
9106;SDS011;4589;48.690;8.952;2024-01-06T11:34:52;1.30;;;1.20;;
9106;SDS011;4589;48.690;8.952;2024-01-06T11:37:23;1.47;;;1.30;;
9106;SDS011;4589;48.690;8.952;2024-01-06T11:39:50;1.40;;;1.30;;
9106;SDS011;4589;48.690;8.952;2024-01-06T11:42:15;2.33;;;1.50;;
9106;SDS011;4589;48.690;8.952;2024-01-06T11:44:44;1.40;;;1.30;;
9106;SDS011;4589;48.690;8.952;2024-01-06T11:47:14;3.83;;;2.67;;
9106;SDS011;4589;48.690;8.952;2024-01-06T11:49:43;1.67;;;1.57;;
9106;SDS011;4589;48.690;8.952;2024-01-06T11:52:10;1.63;;;1.53;;
9106;SDS011;4589;48.690;8.952;2024-01-06T11:54:37;1.40;;;1.23;;
9106;SDS011;4589;48.690;8.952;2024-01-06T11:57:03;1.50;;;1.40;;
9106;SDS011;4589;48.690;8.952;2024-01-06T11:59:29;1.70;;;1.57;;
9106;SDS011;4589;48.690;8.952;2024-01-06T12:01:55;1.93;;;1.70;;
9106;SDS011;4589;48.690;8.952;2024-01-06T12:04:20;2.23;;;1.73;;
9106;SDS011;4589;48.690;8.952;2024-01-06T12:06:47;4.50;;;1.30;;
9106;SDS011;4589;48.690;8.952;2024-01-06T12:09:12;1.60;;;1.50;;
9106;SDS011;4589;48.690;8.952;2024-01-06T12:11:41;2.13;;;1.70;;
9106;SDS011;4589;48.690;8.952;2024-01-06T12:14:10;2.13;;;1.57;;
9106;SDS011;4589;48.690;8.952;2024-01-06T12:16:36;1.73;;;1.50;;
9106;SDS011;4589;48.690;8.952;2024-01-06T12:19:01;1.70;;;1.60;;
9106;SDS011;4589;48.690;8.952;2024-01-06T12:21:28;2.43;;;1.53;;
9106;SDS011;4589;48.690;8.952;2024-01-06T12:24:11;2.90;;;1.70;;
9106;SDS011;4589;48.690;8.952;2024-01-06T12:26:43;2.40;;;1.70;;
9106;SDS011;4589;48.690;8.952;2024-01-06T12:29:09;2.50;;;2.10;;
9106;SDS011;4589;48.690;8.952;2024-01-06T12:31:36;2.40;;;1.70;;
9106;SDS011;4589;48.690;8.952;2024-01-06T12:34:03;2.40;;;2.20;;
9106;SDS011;4589;48.690;8.952;2024-01-06T12:36:29;1.80;;;1.60;;
9106;SDS011;4589;48.690;8.952;2024-01-06T12:38:56;1.53;;;1.43;;
9106;SDS011;4589;48.690;8.952;2024-01-06T12:41:23;1.60;;;1.43;;
9106;SDS011;4589;48.690;8.952;2024-01-06T12:43:49;2.20;;;2.00;;
9106;SDS011;4589;48.690;8.952;2024-01-06T12:46:15;2.43;;;2.23;;
9106;SDS011;4589;48.690;8.952;2024-01-06T12:48:41;1.70;;;1.60;;
9106;SDS011;4589;48.690;8.952;2024-01-06T12:51:07;2.00;;;1.90;;
9106;SDS011;4589;48.690;8.952;2024-01-06T12:53:32;3.77;;;2.00;;
9106;SDS011;4589;48.690;8.952;2024-01-06T12:55:58;2.50;;;1.87;;
9106;SDS011;4589;48.690;8.952;2024-01-06T12:58:24;2.70;;;2.00;;
9106;SDS011;4589;48.690;8.952;2024-01-06T13:00:49;2.87;;;2.40;;
9106;SDS011;4589;48.690;8.952;2024-01-06T13:03:15;4.50;;;2.80;;
9106;SDS011;4589;48.690;8.952;2024-01-06T13:05:41;2.60;;;2.40;;
9106;SDS011;4589;48.690;8.952;2024-01-06T13:08:07;2.77;;;2.43;;
9106;SDS011;4589;48.690;8.952;2024-01-06T13:10:33;5.10;;;2.20;;
9106;SDS011;4589;48.690;8.952;2024-01-06T13:13:00;2.40;;;2.20;;
9106;SDS011;4589;48.690;8.952;2024-01-06T13:15:26;2.53;;;2.33;;
9106;SDS011;4589;48.690;8.952;2024-01-06T13:17:52;5.03;;;2.80;;
9106;SDS011;4589;48.690;8.952;2024-01-06T13:20:18;2.70;;;2.27;;
9106;SDS011;4589;48.690;8.952;2024-01-06T13:22:44;2.30;;;2.10;;
9106;SDS011;4589;48.690;8.952;2024-01-06T13:25:10;5.30;;;2.87;;
9106;SDS011;4589;48.690;8.952;2024-01-06T13:27:36;3.73;;;2.80;;
9106;SDS011;4589;48.690;8.952;2024-01-06T13:30:03;3.20;;;2.90;;
9106;SDS011;4589;48.690;8.952;2024-01-06T13:32:29;4.20;;;2.93;;
9106;SDS011;4589;48.690;8.952;2024-01-06T13:34:55;3.63;;;2.77;;
9106;SDS011;4589;48.690;8.952;2024-01-06T13:37:27;3.67;;;3.00;;
9106;SDS011;4589;48.690;8.952;2024-01-06T13:39:52;4.00;;;3.33;;
9106;SDS011;4589;48.690;8.952;2024-01-06T13:42:18;5.10;;;3.20;;
9106;SDS011;4589;48.690;8.952;2024-01-06T13:44:46;2.93;;;2.70;;
9106;SDS011;4589;48.690;8.952;2024-01-06T13:47:13;4.73;;;3.90;;
9106;SDS011;4589;48.690;8.952;2024-01-06T13:49:39;5.27;;;3.47;;
9106;SDS011;4589;48.690;8.952;2024-01-06T13:52:05;5.33;;;3.70;;
9106;SDS011;4589;48.690;8.952;2024-01-06T13:54:32;4.53;;;3.83;;
9106;SDS011;4589;48.690;8.952;2024-01-06T13:56:58;6.07;;;4.40;;
9106;SDS011;4589;48.690;8.952;2024-01-06T13:59:24;6.10;;;5.33;;
9106;SDS011;4589;48.690;8.952;2024-01-06T14:01:50;6.20;;;4.60;;
9106;SDS011;4589;48.690;8.952;2024-01-06T14:04:16;8.50;;;5.10;;
9106;SDS011;4589;48.690;8.952;2024-01-06T14:06:42;5.97;;;4.37;;
9106;SDS011;4589;48.690;8.952;2024-01-06T14:09:08;6.63;;;4.17;;
9106;SDS011;4589;48.690;8.952;2024-01-06T14:11:34;5.90;;;4.30;;
9106;SDS011;4589;48.690;8.952;2024-01-06T14:14:01;4.83;;;3.97;;
9106;SDS011;4589;48.690;8.952;2024-01-06T14:16:26;7.07;;;5.03;;
9106;SDS011;4589;48.690;8.952;2024-01-06T14:18:53;7.73;;;4.83;;
9106;SDS011;4589;48.690;8.952;2024-01-06T14:21:19;6.40;;;4.97;;
9106;SDS011;4589;48.690;8.952;2024-01-06T14:23:45;6.00;;;4.90;;
9106;SDS011;4589;48.690;8.952;2024-01-06T14:26:11;6.63;;;4.70;;
9106;SDS011;4589;48.690;8.952;2024-01-06T14:28:37;5.20;;;3.83;;
9106;SDS011;4589;48.690;8.952;2024-01-06T14:31:02;4.80;;;3.93;;
9106;SDS011;4589;48.690;8.952;2024-01-06T14:33:28;5.10;;;3.90;;
9106;SDS011;4589;48.690;8.952;2024-01-06T14:35:54;7.60;;;4.93;;
9106;SDS011;4589;48.690;8.952;2024-01-06T14:38:20;7.47;;;5.03;;
9106;SDS011;4589;48.690;8.952;2024-01-06T14:40:45;7.83;;;5.53;;
9106;SDS011;4589;48.690;8.952;2024-01-06T14:43:11;7.63;;;5.60;;
9106;SDS011;4589;48.690;8.952;2024-01-06T14:45:37;7.63;;;5.77;;
9106;SDS011;4589;48.690;8.952;2024-01-06T14:48:03;9.03;;;5.97;;
9106;SDS011;4589;48.690;8.952;2024-01-06T14:50:29;10.90;;;6.37;;
9106;SDS011;4589;48.690;8.952;2024-01-06T14:52:54;12.30;;;6.60;;
9106;SDS011;4589;48.690;8.952;2024-01-06T14:55:20;9.00;;;6.17;;
9106;SDS011;4589;48.690;8.952;2024-01-06T14:57:46;10.70;;;6.27;;
9106;SDS011;4589;48.690;8.952;2024-01-06T15:00:11;8.37;;;5.40;;
9106;SDS011;4589;48.690;8.952;2024-01-06T15:02:38;9.13;;;6.67;;
9106;SDS011;4589;48.690;8.952;2024-01-06T15:05:04;9.50;;;6.17;;